Time;durP1;ratioP1;P1;durP2;ratioP2;P2;SDS_P1;SDS_P2;PMS_P1;PMS_P2;Temp;Humidity;BMP_temperature;BMP_pressure;BME280_temperature;BME280_humidity;BME280_pressure;Samples;Min_cycle;Max_cycle;Signal;HPM_P1;HPM_P2
2023/05/18 00:01:29;;;;;;;0.57;0.57;;;7.90;99.90;;;;;;4981837;28;20853;-81
2023/05/18 00:03:55;;;;;;;0.90;0.90;;;8.00;99.90;;;;;;4960329;28;20224;-82
2023/05/18 00:06:24;;;;;;;1.37;1.20;;;8.00;99.90;;;;;;4998597;28;20181;-82
2023/05/18 00:08:50;;;;;;;10.53;0.83;;;8.00;99.90;;;;;;4968954;28;20264;-82
2023/05/18 00:11:16;;;;;;;1.60;1.50;;;8.00;99.90;;;;;;4971263;28;20282;-82
2023/05/18 00:13:43;;;;;;;4.70;1.67;;;8.00;99.90;;;;;;4971817;28;20227;-82
2023/05/18 00:16:10;;;;;;;1.17;0.87;;;8.00;99.90;;;;;;4991323;28;20223;-82
2023/05/18 00:18:36;;;;;;;1.33;0.80;;;8.00;99.90;;;;;;4959862;28;20638;-82
2023/05/18 00:21:03;;;;;;;1.13;1.13;;;8.00;99.90;;;;;;4966197;28;20203;-81
2023/05/18 00:23:31;;;;;;;1.10;1.00;;;8.00;99.90;;;;;;4977845;28;20215;-82
2023/05/18 00:25:58;;;;;;;4.03;1.67;;;8.10;99.90;;;;;;4997978;28;20234;-82
2023/05/18 00:28:25;;;;;;;0.87;0.80;;;8.10;99.90;;;;;;4982737;28;20211;-82
2023/05/18 00:30:51;;;;;;;1.17;1.07;;;8.10;99.90;;;;;;4998998;28;20261;-82
2023/05/18 00:33:16;;;;;;;0.63;0.63;;;8.10;99.90;;;;;;5015054;28;20604;-82
2023/05/18 00:35:42;;;;;;;1.40;1.30;;;8.10;99.90;;;;;;4981647;28;20293;-82
2023/05/18 00:38:08;;;;;;;9.00;1.30;;;8.00;99.90;;;;;;4998712;28;20219;-82
2023/05/18 00:40:34;;;;;;;1.43;1.20;;;8.10;99.90;;;;;;4981244;28;20281;-82
2023/05/18 00:42:59;;;;;;;0.57;0.57;;;8.00;99.90;;;;;;4977092;28;20223;-81
2023/05/18 00:45:25;;;;;;;0.87;0.87;;;8.00;99.90;;;;;;4980466;28;20318;-82
2023/05/18 00:47:51;;;;;;;0.83;0.83;;;8.00;99.90;;;;;;4998739;28;20220;-82
2023/05/18 00:50:17;;;;;;;1.07;0.83;;;8.00;99.90;;;;;;4998223;28;20311;-81
2023/05/18 00:52:45;;;;;;;1.23;1.20;;;8.00;99.90;;;;;;4992922;28;20230;-82
2023/05/18 00:55:11;;;;;;;3.17;1.30;;;7.90;99.90;;;;;;5002395;28;20254;-82
2023/05/18 00:57:40;;;;;;;1.20;1.10;;;7.90;99.90;;;;;;5001349;28;20622;-82
2023/05/18 01:00:09;;;;;;;2.47;1.67;;;7.90;99.90;;;;;;4985520;28;20210;-82
2023/05/18 01:02:41;;;;;;;3.03;0.83;;;7.90;99.90;;;;;;4984808;28;20231;-82
2023/05/18 01:05:09;;;;;;;2.53;1.77;;;7.90;99.90;;;;;;5018937;28;20853;-81
2023/05/18 01:07:41;;;;;;;3.27;1.50;;;7.90;99.90;;;;;;4983769;28;20302;-82
2023/05/18 01:10:08;;;;;;;1.23;1.23;;;7.80;99.90;;;;;;4985944;28;20330;-81
2023/05/18 01:12:44;;;;;;;4.37;1.57;;;7.80;99.90;;;;;;5002505;28;20491;-82
2023/05/18 01:15:21;;;;;;;4.70;1.43;;;7.80;99.90;;;;;;5001761;28;20453;-81
2023/05/18 01:18:24;;;;;;;2.27;1.87;;;7.80;99.90;;;;;;5001245;28;20210;-82
2023/05/18 01:21:32;;;;;;;0.70;0.63;;;7.80;99.90;;;;;;4983250;28;20294;-82
2023/05/18 01:24:10;;;;;;;1.63;1.33;;;7.80;99.90;;;;;;4996287;28;20303;-82
2023/05/18 01:26:40;;;;;;;3.10;0.87;;;7.90;99.90;;;;;;5003765;28;20245;-81
2023/05/18 01:29:08;;;;;;;2.33;0.93;;;7.90;99.90;;;;;;5017521;28;20649;-82
2023/05/18 01:31:34;;;;;;;4.13;1.43;;;7.90;99.90;;;;;;5007109;28;20223;-82
2023/05/18 01:34:00;;;;;;;1.63;1.23;;;7.90;99.90;;;;;;4989009;28;20249;-82
2023/05/18 01:36:26;;;;;;;0.80;0.80;;;7.80;99.90;;;;;;4969155;28;20196;-82
2023/05/18 01:38:53;;;;;;;2.30;1.10;;;7.70;99.90;;;;;;5001019;28;20219;-82
2023/05/18 01:41:25;;;;;;;1.47;1.37;;;7.70;99.90;;;;;;4976089;28;20308;-82
2023/05/18 01:44:21;;;;;;;0.70;0.70;;;7.70;99.90;;;;;;4973837;28;20312;-83
2023/05/18 01:47:19;;;;;;;1.57;1.47;;;7.60;99.90;;;;;;4995113;28;20232;-82
2023/05/18 01:49:57;;;;;;;1.03;0.93;;;7.70;99.90;;;;;;4971102;28;20235;-82
2023/05/18 01:52:36;;;;;;;2.00;1.43;;;7.70;99.90;;;;;;4964851;28;20701;-81
2023/05/18 01:55:04;;;;;;;2.93;1.27;;;7.70;99.90;;;;;;4973092;28;20220;-81
2023/05/18 01:57:33;;;;;;;1.07;1.00;;;7.70;99.90;;;;;;4999924;28;21035;-82
2023/05/18 02:00:00;;;;;;;1.63;1.53;;;7.70;99.90;;;;;;5000887;28;20223;-82
2023/05/18 02:02:27;;;;;;;0.87;0.87;;;7.70;99.90;;;;;;5002996;28;20226;-82
2023/05/18 02:04:52;;;;;;;4.30;1.40;;;7.60;99.90;;;;;;5000842;28;20247;-82
2023/05/18 02:07:18;;;;;;;1.43;1.33;;;7.70;99.90;;;;;;4999590;28;20700;-82
2023/05/18 02:09:44;;;;;;;2.37;2.17;;;7.80;99.90;;;;;;5000118;28;20314;-82
2023/05/18 02:12:10;;;;;;;2.50;1.83;;;7.80;99.90;;;;;;5001390;28;20192;-82
2023/05/18 02:14:36;;;;;;;1.80;1.23;;;7.90;99.90;;;;;;4999361;28;20310;-82
2023/05/18 02:17:02;;;;;;;0.80;0.80;;;7.80;99.90;;;;;;5017089;28;20226;-82
2023/05/18 02:19:29;;;;;;;1.10;1.00;;;7.80;99.90;;;;;;5001255;28;20226;-82
2023/05/18 02:21:56;;;;;;;1.50;1.40;;;7.80;99.90;;;;;;4999353;28;20223;-82
2023/05/18 02:24:23;;;;;;;1.90;0.80;;;7.80;99.90;;;;;;4984553;28;20187;-81
2023/05/18 02:26:50;;;;;;;0.80;0.80;;;7.80;99.90;;;;;;5016341;28;20258;-82
2023/05/18 02:29:16;;;;;;;1.00;0.87;;;7.90;99.90;;;;;;4983304;28;20284;-83
2023/05/18 02:31:42;;;;;;;0.50;0.50;;;8.00;99.90;;;;;;4968085;28;20223;-82
2023/05/18 02:34:09;;;;;;;1.30;1.07;;;8.00;99.90;;;;;;5000642;28;20258;-82
2023/05/18 02:36:41;;;;;;;1.03;1.03;;;8.00;99.90;;;;;;4999724;28;20223;-82
2023/05/18 02:39:08;;;;;;;1.03;1.03;;;8.00;99.90;;;;;;4985096;28;20649;-82
2023/05/18 02:41:37;;;;;;;1.63;1.33;;;8.00;99.90;;;;;;4999461;28;20219;-82
2023/05/18 02:44:03;;;;;;;2.47;1.70;;;8.10;99.90;;;;;;4986989;28;20208;-82
2023/05/18 02:46:30;;;;;;;0.60;0.60;;;8.20;99.90;;;;;;4996008;28;20227;-82
2023/05/18 02:48:56;;;;;;;7.03;1.77;;;8.20;99.90;;;;;;4984833;28;20771;-81
2023/05/18 02:51:22;;;;;;;1.10;1.00;;;8.20;99.90;;;;;;4999693;28;20188;-82
2023/05/18 02:53:48;;;;;;;1.00;1.00;;;8.20;99.90;;;;;;5000080;28;20265;-82
2023/05/18 02:56:16;;;;;;;0.83;0.83;;;8.30;99.90;;;;;;4982961;28;20215;-81
2023/05/18 02:58:42;;;;;;;0.77;0.77;;;8.30;99.90;;;;;;4999288;28;20219;-82
2023/05/18 03:01:10;;;;;;;0.87;0.87;;;8.30;99.90;;;;;;4982674;28;20285;-82
2023/05/18 03:03:37;;;;;;;5.37;1.00;;;8.30;99.90;;;;;;5031598;28;20191;-82
2023/05/18 03:06:04;;;;;;;0.57;0.57;;;8.30;99.90;;;;;;5017355;28;20202;-83
2023/05/18 03:08:30;;;;;;;3.70;1.90;;;8.40;99.90;;;;;;4998451;28;20408;-82
2023/05/18 03:10:57;;;;;;;1.50;1.40;;;8.30;99.90;;;;;;4999318;28;20646;-82
2023/05/18 03:13:23;;;;;;;2.00;1.50;;;8.40;99.90;;;;;;5000570;28;20246;-82
2023/05/18 03:15:49;;;;;;;0.73;0.73;;;8.40;99.90;;;;;;4998888;28;20256;-83
2023/05/18 03:18:16;;;;;;;1.37;1.27;;;8.40;99.90;;;;;;5000628;28;20187;-83
2023/05/18 03:20:43;;;;;;;1.53;1.03;;;8.40;99.90;;;;;;4998842;28;20636;-82
2023/05/18 03:23:09;;;;;;;0.90;0.90;;;8.40;99.90;;;;;;4998871;28;20711;-83
2023/05/18 03:25:36;;;;;;;4.13;1.57;;;8.40;99.90;;;;;;4999652;28;20309;-83
2023/05/18 03:28:05;;;;;;;1.47;1.37;;;8.40;99.90;;;;;;4998191;28;20243;-83
2023/05/18 03:30:32;;;;;;;1.50;1.40;;;8.40;99.90;;;;;;4999476;28;20346;-83
2023/05/18 03:32:58;;;;;;;1.00;1.00;;;8.40;99.90;;;;;;4998042;28;20231;-83
2023/05/18 03:35:24;;;;;;;1.23;1.13;;;8.30;99.90;;;;;;4998548;28;20325;-82
2023/05/18 03:37:50;;;;;;;1.70;1.27;;;8.40;99.90;;;;;;4998797;28;20234;-82
2023/05/18 03:40:18;;;;;;;1.77;1.50;;;8.40;99.90;;;;;;4998844;28;20222;-82
2023/05/18 03:42:46;;;;;;;3.63;1.20;;;8.40;99.90;;;;;;4999906;28;20205;-83
2023/05/18 03:45:12;;;;;;;4.83;2.10;;;8.40;99.90;;;;;;4998855;28;20194;-83
2023/05/18 03:47:39;;;;;;;1.20;1.10;;;8.50;99.90;;;;;;4998360;28;20219;-82
2023/05/18 03:50:05;;;;;;;1.73;1.60;;;8.40;99.90;;;;;;5000275;28;20231;-82
2023/05/18 03:52:35;;;;;;;1.20;1.10;;;8.50;99.90;;;;;;5031184;28;20782;-83
2023/05/18 03:55:03;;;;;;;1.20;1.10;;;8.50;99.90;;;;;;4982676;28;20687;-82
2023/05/18 03:57:28;;;;;;;3.10;1.43;;;8.60;99.90;;;;;;4998100;28;20677;-83
2023/05/18 03:59:55;;;;;;;1.17;1.17;;;8.60;99.90;;;;;;4982639;28;20728;-82
2023/05/18 04:02:21;;;;;;;1.10;1.10;;;8.70;99.90;;;;;;5015411;28;20231;-83
2023/05/18 04:04:47;;;;;;;5.67;1.83;;;8.70;99.90;;;;;;5031062;28;20221;-83
2023/05/18 04:07:16;;;;;;;2.70;1.50;;;8.70;99.90;;;;;;5015024;28;20975;-82
2023/05/18 04:09:43;;;;;;;1.80;1.00;;;8.70;99.90;;;;;;4997727;28;20215;-83
2023/05/18 04:12:09;;;;;;;0.87;0.87;;;8.80;99.90;;;;;;4998259;28;20378;-83
2023/05/18 04:14:35;;;;;;;1.53;1.10;;;8.80;99.90;;;;;;4990430;28;20398;-83
2023/05/18 04:17:05;;;;;;;1.37;1.27;;;8.80;99.90;;;;;;4999960;28;20223;-82
2023/05/18 04:19:35;;;;;;;0.67;0.67;;;8.90;99.90;;;;;;4998646;28;20223;-83
2023/05/18 04:22:04;;;;;;;1.57;1.47;;;8.90;99.90;;;;;;5035337;28;20285;-82
2023/05/18 04:24:37;;;;;;;2.77;1.10;;;9.00;99.90;;;;;;5004041;28;20202;-82
2023/05/18 04:27:03;;;;;;;1.63;1.20;;;9.00;99.90;;;;;;4968373;28;20330;-83
2023/05/18 04:29:29;;;;;;;1.10;1.03;;;9.00;99.90;;;;;;4995562;28;20231;-83
2023/05/18 04:32:01;;;;;;;1.43;1.27;;;9.10;99.90;;;;;;4992930;28;20838;-83
2023/05/18 04:34:28;;;;;;;1.07;0.87;;;9.20;99.90;;;;;;4976416;28;20706;-82
2023/05/18 04:36:54;;;;;;;1.53;1.43;;;9.20;99.90;;;;;;4974286;28;20220;-83
2023/05/18 04:39:22;;;;;;;0.90;0.90;;;9.20;99.90;;;;;;4985805;28;20191;-82
2023/05/18 04:41:49;;;;;;;1.37;1.17;;;9.20;99.90;;;;;;5001900;28;20289;-83
2023/05/18 04:44:18;;;;;;;1.23;1.00;;;9.20;99.90;;;;;;5001924;28;20685;-82
2023/05/18 04:46:46;;;;;;;1.50;1.40;;;9.10;99.90;;;;;;4986028;28;20231;-83
2023/05/18 04:49:12;;;;;;;1.57;1.40;;;9.10;99.90;;;;;;4985898;28;20222;-83
2023/05/18 04:51:40;;;;;;;4.17;1.60;;;9.20;99.90;;;;;;5004726;28;20723;-83
2023/05/18 04:54:07;;;;;;;1.87;1.77;;;9.20;99.90;;;;;;4979020;28;20254;-83
2023/05/18 04:56:34;;;;;;;2.77;1.10;;;9.20;99.90;;;;;;4976201;28;20317;-83
2023/05/18 04:59:00;;;;;;;1.50;1.07;;;9.20;99.90;;;;;;4967960;28;20717;-82
2023/05/18 05:01:26;;;;;;;5.60;1.80;;;9.30;99.90;;;;;;4973686;28;20223;-83
2023/05/18 05:03:52;;;;;;;3.57;1.63;;;9.30;99.90;;;;;;5018700;28;20223;-82
2023/05/18 05:06:17;;;;;;;2.13;1.60;;;9.30;99.90;;;;;;5001746;28;20199;-83
2023/05/18 05:08:43;;;;;;;2.90;1.33;;;9.40;99.90;;;;;;5001839;28;20227;-82
2023/05/18 05:11:09;;;;;;;1.90;1.67;;;9.40;99.90;;;;;;5000398;28;20584;-83
2023/05/18 05:13:35;;;;;;;1.53;1.43;;;9.40;99.90;;;;;;5001835;28;20223;-82
2023/05/18 05:16:01;;;;;;;1.17;0.90;;;9.40;99.90;;;;;;5018620;28;20235;-82
2023/05/18 05:18:27;;;;;;;5.60;1.87;;;9.40;99.90;;;;;;5003233;28;20191;-83
2023/05/18 05:20:53;;;;;;;1.33;1.23;;;9.50;99.90;;;;;;5001462;28;20282;-83
2023/05/18 05:23:19;;;;;;;2.13;1.93;;;9.60;99.90;;;;;;5001451;28;20215;-83
2023/05/18 05:25:45;;;;;;;0.93;0.83;;;9.70;99.90;;;;;;5000873;28;20302;-82
2023/05/18 05:28:11;;;;;;;1.13;0.90;;;9.70;99.90;;;;;;4969230;28;20222;-82
2023/05/18 05:30:36;;;;;;;1.33;1.23;;;9.80;99.90;;;;;;5000512;28;20708;-83
2023/05/18 05:33:02;;;;;;;1.23;1.10;;;10.10;99.90;;;;;;5002290;28;20732;-83
2023/05/18 05:35:28;;;;;;;1.80;1.63;;;10.20;99.90;;;;;;5017703;28;20289;-83
2023/05/18 05:37:54;;;;;;;2.90;1.33;;;10.30;99.90;;;;;;4968199;28;20263;-83
2023/05/18 05:40:20;;;;;;;1.10;1.00;;;10.50;99.90;;;;;;5003027;28;20321;-83
2023/05/18 05:42:46;;;;;;;2.17;1.77;;;10.60;99.90;;;;;;4968738;28;21093;-82
2023/05/18 05:45:12;;;;;;;2.17;1.37;;;10.40;99.90;;;;;;4984813;28;20281;-83
2023/05/18 05:47:38;;;;;;;2.63;1.50;;;10.40;99.90;;;;;;4999710;28;20394;-81
2023/05/18 05:50:05;;;;;;;3.50;1.87;;;10.30;99.90;;;;;;4999690;28;20255;-81
2023/05/18 05:52:31;;;;;;;1.23;0.70;;;10.30;99.90;;;;;;4984165;28;20234;-83
2023/05/18 05:54:56;;;;;;;1.20;1.10;;;10.60;99.90;;;;;;5016464;28;20502;-82
2023/05/18 05:57:22;;;;;;;1.30;1.20;;;10.70;99.90;;;;;;4984801;28;20274;-82
2023/05/18 05:59:48;;;;;;;7.63;1.60;;;10.80;99.90;;;;;;4999762;28;20225;-82
2023/05/18 06:02:13;;;;;;;3.47;1.60;;;10.80;99.90;;;;;;4984795;28;20219;-83
2023/05/18 06:04:39;;;;;;;3.07;1.30;;;10.70;99.90;;;;;;4999739;28;20668;-83
2023/05/18 06:07:05;;;;;;;5.07;1.70;;;10.60;99.90;;;;;;4996127;28;20600;-82
2023/05/18 06:09:31;;;;;;;3.50;1.07;;;10.80;99.90;;;;;;4965288;28;20208;-82
2023/05/18 06:11:57;;;;;;;1.57;1.27;;;10.80;99.90;;;;;;4982068;28;20219;-83
2023/05/18 06:14:22;;;;;;;1.10;0.83;;;10.80;99.90;;;;;;5008272;28;20724;-82
2023/05/18 06:16:48;;;;;;;0.70;0.70;;;10.90;99.90;;;;;;5005359;28;20220;-82
2023/05/18 06:19:14;;;;;;;1.53;0.77;;;11.10;99.90;;;;;;5002745;28;20989;-82
2023/05/18 06:21:40;;;;;;;1.27;0.97;;;11.00;99.90;;;;;;4990258;28;20188;-83
2023/05/18 06:24:06;;;;;;;2.07;1.57;;;11.00;99.90;;;;;;4965008;28;20661;-82
2023/05/18 06:26:31;;;;;;;3.07;0.80;;;11.10;99.90;;;;;;4969093;28;20279;-83
2023/05/18 06:28:57;;;;;;;1.13;0.93;;;10.90;99.90;;;;;;5004632;28;20843;-83
2023/05/18 06:31:23;;;;;;;2.77;1.00;;;10.80;99.90;;;;;;4996794;28;20737;-83
2023/05/18 06:33:49;;;;;;;4.07;1.40;;;11.00;99.90;;;;;;4982489;28;20648;-82
2023/05/18 06:36:15;;;;;;;2.00;1.33;;;11.10;99.90;;;;;;4999994;28;20210;-82
2023/05/18 06:38:41;;;;;;;0.83;0.53;;;11.20;99.90;;;;;;4973918;28;20618;-82
2023/05/18 06:41:07;;;;;;;2.43;1.17;;;11.20;99.90;;;;;;4966326;28;20217;-82
2023/05/18 06:43:33;;;;;;;1.43;1.33;;;11.30;99.90;;;;;;4982533;28;20677;-83
2023/05/18 06:45:59;;;;;;;1.63;1.03;;;11.20;99.90;;;;;;4979167;28;20227;-81
2023/05/18 06:48:26;;;;;;;0.77;0.77;;;11.40;99.90;;;;;;4980275;28;20192;-83
2023/05/18 06:50:52;;;;;;;1.50;1.40;;;11.50;99.90;;;;;;4978774;28;20246;-82
2023/05/18 06:53:18;;;;;;;9.27;1.90;;;11.70;99.90;;;;;;4980967;28;20720;-82
2023/05/18 06:55:43;;;;;;;1.60;1.20;;;11.50;99.90;;;;;;5011674;28;20216;-82
2023/05/18 06:58:09;;;;;;;1.43;1.30;;;11.70;99.90;;;;;;4980470;28;20251;-85
2023/05/18 07:00:35;;;;;;;4.27;1.50;;;11.70;99.90;;;;;;4962803;28;21056;-83
2023/05/18 07:03:01;;;;;;;2.47;2.27;;;11.80;99.90;;;;;;4981202;28;20662;-83
2023/05/18 07:05:27;;;;;;;3.97;1.13;;;12.20;99.90;;;;;;4979970;28;20493;-82
2023/05/18 07:07:53;;;;;;;3.30;0.67;;;12.60;99.90;;;;;;4978673;28;20214;-82
2023/05/18 07:10:21;;;;;;;1.53;0.90;;;12.80;99.90;;;;;;4979963;28;20714;-83
2023/05/18 07:12:47;;;;;;;1.37;1.30;;;12.90;99.90;;;;;;4979958;28;20199;-84
2023/05/18 07:15:13;;;;;;;5.47;2.00;;;12.30;99.90;;;;;;4947999;28;20246;-82
2023/05/18 07:17:39;;;;;;;0.80;0.80;;;12.30;99.90;;;;;;4979449;28;20231;-82
2023/05/18 07:20:06;;;;;;;2.00;0.67;;;12.20;99.90;;;;;;4964407;28;21106;-83
2023/05/18 07:22:33;;;;;;;1.37;1.27;;;12.30;99.90;;;;;;4978412;28;20606;-82
2023/05/18 07:24:59;;;;;;;1.63;0.93;;;12.80;99.90;;;;;;4981125;28;20315;-82
2023/05/18 07:27:28;;;;;;;0.50;0.50;;;13.10;99.90;;;;;;4962785;28;20320;-83
2023/05/18 07:29:55;;;;;;;1.63;1.43;;;13.40;99.90;;;;;;4961815;28;20232;-83
2023/05/18 07:32:21;;;;;;;1.50;0.70;;;13.60;99.90;;;;;;4978566;28;20798;-82
2023/05/18 07:34:47;;;;;;;4.00;1.37;;;13.40;99.90;;;;;;4961418;28;20751;-83
2023/05/18 07:37:13;;;;;;;2.23;0.83;;;13.60;99.90;;;;;;4968309;28;20280;-83
2023/05/18 07:39:39;;;;;;;2.50;0.70;;;13.50;99.90;;;;;;4997773;28;20557;-83
2023/05/18 07:42:05;;;;;;;0.97;0.73;;;13.70;99.90;;;;;;4968132;28;20204;-83
2023/05/18 07:44:31;;;;;;;2.57;1.20;;;13.90;99.90;;;;;;4965278;28;20220;-82
2023/05/18 07:46:57;;;;;;;3.30;1.30;;;13.70;99.90;;;;;;4966149;28;20231;-83
2023/05/18 07:49:22;;;;;;;2.07;0.87;;;14.70;99.90;;;;;;4963491;28;20278;-82
2023/05/18 07:51:51;;;;;;;2.47;1.10;;;15.90;99.90;;;;;;4964882;28;20207;-83
2023/05/18 07:54:18;;;;;;;3.77;1.43;;;16.90;99.90;;;;;;4987229;28;20544;-83
2023/05/18 07:56:44;;;;;;;1.27;1.10;;;18.30;99.90;;;;;;4962795;28;20226;-81
2023/05/18 07:59:10;;;;;;;0.73;0.73;;;17.40;99.90;;;;;;4964286;28;20215;-81
2023/05/18 08:01:37;;;;;;;1.20;1.07;;;17.50;99.90;;;;;;4964344;28;20295;-82
2023/05/18 08:04:03;;;;;;;1.13;1.10;;;18.10;99.90;;;;;;4966604;28;21335;-83
2023/05/18 08:06:29;;;;;;;4.10;1.00;;;17.90;99.90;;;;;;4998768;28;20191;-81
2023/05/18 08:08:55;;;;;;;11.13;1.50;;;15.80;99.90;;;;;;4997277;28;20265;-81
2023/05/18 08:11:22;;;;;;;1.70;1.17;;;15.20;99.90;;;;;;4982335;28;20291;-81
2023/05/18 08:13:48;;;;;;;1.10;0.90;;;15.60;99.90;;;;;;5014097;28;20734;-82
2023/05/18 08:16:14;;;;;;;2.27;1.07;;;16.60;99.90;;;;;;4988721;28;20216;-81
2023/05/18 08:18:40;;;;;;;4.90;1.67;;;17.20;99.90;;;;;;4973776;28;20222;-82
2023/05/18 08:21:08;;;;;;;1.87;1.17;;;17.40;99.90;;;;;;4959756;28;20295;-81
2023/05/18 08:23:35;;;;;;;2.40;1.17;;;16.30;99.90;;;;;;4967994;28;20275;-81
2023/05/18 08:26:02;;;;;;;1.50;1.30;;;15.80;99.90;;;;;;4973498;28;20703;-82
2023/05/18 08:28:29;;;;;;;1.47;1.13;;;15.50;99.90;;;;;;4986736;28;20215;-82
2023/05/18 08:30:55;;;;;;;2.47;1.20;;;15.10;99.90;;;;;;4999648;28;20321;-81
2023/05/18 08:33:22;;;;;;;1.67;1.00;;;14.60;99.90;;;;;;5000047;28;21058;-82
2023/05/18 08:35:48;;;;;;;4.20;1.63;;;14.00;99.90;;;;;;4981902;28;20325;-83
2023/05/18 08:38:15;;;;;;;2.10;0.90;;;13.80;99.90;;;;;;4997225;28;20299;-82
2023/05/18 08:41:12;;;;;;;0.83;0.77;;;14.00;99.90;;;;;;4998151;28;20238;-82
2023/05/18 08:43:43;;;;;;;2.27;1.70;;;14.40;99.90;;;;;;4999252;28;20692;-82
2023/05/18 08:46:25;;;;;;;7.63;1.67;;;14.30;99.90;;;;;;4998501;28;20222;-81
2023/05/18 08:48:52;;;;;;;1.97;1.13;;;14.00;99.90;;;;;;4994137;28;20180;-81
2023/05/18 08:51:20;;;;;;;2.07;1.03;;;13.50;99.90;;;;;;4964134;28;20192;-82
2023/05/18 08:53:52;;;;;;;3.80;0.87;;;14.00;99.90;;;;;;4967786;28;20216;-83
2023/05/18 08:56:21;;;;;;;0.80;0.80;;;14.60;99.90;;;;;;4977189;28;20749;-82
2023/05/18 08:58:49;;;;;;;1.93;0.90;;;15.00;99.90;;;;;;4981588;28;20217;-82
2023/05/18 09:01:16;;;;;;;2.17;1.77;;;15.30;99.90;;;;;;4960840;28;20254;-82
2023/05/18 09:03:45;;;;;;;2.03;1.63;;;15.00;99.90;;;;;;4970978;28;20268;-83
2023/05/18 09:06:11;;;;;;;3.40;1.40;;;14.90;99.90;;;;;;4978717;28;20242;-83
2023/05/18 09:08:37;;;;;;;1.20;1.10;;;14.70;99.90;;;;;;4972288;28;20256;-82
2023/05/18 09:11:04;;;;;;;2.10;1.47;;;14.10;99.90;;;;;;4969113;28;20224;-82
2023/05/18 09:13:30;;;;;;;1.27;0.83;;;13.50;99.90;;;;;;4967558;28;20248;-83
2023/05/18 09:15:56;;;;;;;4.23;1.40;;;13.60;99.90;;;;;;4967890;28;20303;-82
2023/05/18 09:18:22;;;;;;;4.87;1.13;;;13.30;99.90;;;;;;4963643;28;20589;-82
2023/05/18 09:20:47;;;;;;;1.07;0.97;;;13.10;99.90;;;;;;5016246;28;20700;-81
2023/05/18 09:23:14;;;;;;;4.20;1.00;;;13.10;99.90;;;;;;5000285;28;21036;-82
2023/05/18 09:25:44;;;;;;;2.03;1.50;;;13.10;99.90;;;;;;4991697;28;20232;-81
2023/05/18 09:28:13;;;;;;;1.23;1.13;;;13.40;99.90;;;;;;4983603;28;20559;-82
2023/05/18 09:30:41;;;;;;;1.80;1.50;;;13.30;99.90;;;;;;4965212;28;20228;-82
2023/05/18 09:33:16;;;;;;;1.33;1.20;;;13.30;99.90;;;;;;4982363;28;20220;-83
2023/05/18 09:35:43;;;;;;;1.17;1.07;;;13.30;99.90;;;;;;4981974;28;20239;-83
2023/05/18 09:38:09;;;;;;;3.30;0.80;;;13.20;99.90;;;;;;4966176;28;20228;-82
2023/05/18 09:40:35;;;;;;;1.97;1.60;;;13.40;99.90;;;;;;4965552;28;20774;-79
2023/05/18 09:43:06;;;;;;;2.43;0.90;;;13.30;99.90;;;;;;4965145;28;20219;-82
2023/05/18 09:45:32;;;;;;;6.20;1.47;;;13.40;99.90;;;;;;4982550;28;20184;-81
2023/05/18 09:47:58;;;;;;;2.07;1.37;;;13.30;99.90;;;;;;4981816;28;20183;-81
2023/05/18 09:50:24;;;;;;;1.40;1.20;;;13.40;99.90;;;;;;4981735;28;20267;-83
2023/05/18 09:52:50;;;;;;;3.87;1.13;;;13.70;99.90;;;;;;5004870;28;20227;-81
2023/05/18 09:55:17;;;;;;;1.07;1.07;;;13.80;99.90;;;;;;4982645;28;20694;-80
2023/05/18 09:57:45;;;;;;;1.63;1.20;;;14.00;99.90;;;;;;4963068;28;20205;-81
2023/05/18 10:00:12;;;;;;;2.20;1.10;;;14.20;99.90;;;;;;4965620;28;20231;-82
2023/05/18 10:02:51;;;;;;;1.10;1.00;;;14.20;99.90;;;;;;4970070;28;20220;-83
2023/05/18 10:05:30;;;;;;;1.80;0.67;;;14.60;99.90;;;;;;4964676;28;20220;-81
2023/05/18 10:07:57;;;;;;;2.17;1.97;;;15.00;99.90;;;;;;4976249;28;20230;-82
2023/05/18 10:10:30;;;;;;;3.83;1.20;;;14.90;99.90;;;;;;5020231;28;20247;-81
2023/05/18 10:12:57;;;;;;;0.90;0.80;;;14.50;99.90;;;;;;4967741;28;20224;-85
2023/05/18 10:15:23;;;;;;;1.53;1.10;;;14.50;99.90;;;;;;4975546;28;20589;-84
2023/05/18 10:17:53;;;;;;;2.53;1.23;;;14.80;99.90;;;;;;4969107;28;20303;-85
2023/05/18 10:20:28;;;;;;;3.40;1.27;;;14.70;99.90;;;;;;4974256;28;20323;-85
2023/05/18 10:22:57;;;;;;;1.03;0.80;;;14.70;99.90;;;;;;4972299;28;20625;-84
2023/05/18 10:25:25;;;;;;;3.17;1.70;;;14.80;99.90;;;;;;4976522;28;20231;-82
2023/05/18 10:27:56;;;;;;;0.90;0.90;;;15.00;99.90;;;;;;4992870;28;22243;-84
2023/05/18 10:30:22;;;;;;;0.97;0.90;;;14.80;99.90;;;;;;4970153;28;20211;-84
2023/05/18 10:32:48;;;;;;;0.80;0.80;;;15.20;99.90;;;;;;4983584;28;20243;-85
2023/05/18 10:35:15;;;;;;;1.80;1.27;;;15.00;99.90;;;;;;5010916;28;20239;-85
2023/05/18 10:37:48;;;;;;;2.80;0.83;;;14.80;99.90;;;;;;4981385;28;20228;-84
2023/05/18 10:40:15;;;;;;;2.83;1.13;;;15.70;99.90;;;;;;4984830;28;20290;-84
2023/05/18 10:42:42;;;;;;;0.97;0.93;;;15.70;99.90;;;;;;5021761;28;20200;-85
2023/05/18 10:45:09;;;;;;;1.23;1.13;;;15.20;99.90;;;;;;5014074;28;20255;-84
2023/05/18 10:47:41;;;;;;;2.63;1.10;;;15.50;99.90;;;;;;4998014;28;20617;-81
2023/05/18 10:50:08;;;;;;;1.40;1.20;;;15.50;99.90;;;;;;5015364;28;20326;-82
2023/05/18 10:52:36;;;;;;;2.53;1.10;;;15.80;99.90;;;;;;4999383;28;20234;-81
2023/05/18 10:55:05;;;;;;;4.93;1.53;;;15.50;99.90;;;;;;4999357;28;20247;-81
2023/05/18 10:57:37;;;;;;;3.43;1.20;;;15.10;99.90;;;;;;4999329;28;20199;-81
2023/05/18 11:00:06;;;;;;;3.13;1.17;;;15.00;99.90;;;;;;4980767;28;20644;-81
2023/05/18 11:02:33;;;;;;;3.50;1.33;;;14.90;99.90;;;;;;4979340;28;20219;-82
2023/05/18 11:04:58;;;;;;;4.00;1.50;;;15.20;99.90;;;;;;4963656;28;20212;-80
2023/05/18 11:07:27;;;;;;;7.70;1.00;;;15.40;99.90;;;;;;4979704;28;20235;-80
2023/05/18 11:09:53;;;;;;;2.97;1.30;;;15.80;99.90;;;;;;4963921;28;20250;-81
2023/05/18 11:12:22;;;;;;;1.53;1.43;;;15.60;99.90;;;;;;5004521;28;20184;-82
2023/05/18 11:14:49;;;;;;;1.00;0.97;;;15.30;99.90;;;;;;4977869;28;20278;-81
2023/05/18 11:17:17;;;;;;;1.13;1.03;;;15.00;99.90;;;;;;4982408;28;20228;-81
2023/05/18 11:20:05;;;;;;;1.07;1.03;;;14.10;99.90;;;;;;4983660;28;20239;-81
2023/05/18 11:22:58;;;;;;;2.60;1.30;;;14.40;99.90;;;;;;5020350;28;20458;-82
2023/05/18 11:25:27;;;;;;;4.47;1.30;;;15.00;99.90;;;;;;4989978;28;20782;-81
2023/05/18 11:28:03;;;;;;;2.07;1.00;;;14.90;99.90;;;;;;5002877;28;20294;-80
2023/05/18 11:30:32;;;;;;;0.70;0.60;;;14.70;99.90;;;;;;4998863;28;20676;-80
2023/05/18 11:33:29;;;;;;;4.53;1.00;;;14.00;99.90;;;;;;4981796;28;20223;-81
2023/05/18 11:36:01;;;;;;;5.83;0.90;;;14.00;99.90;;;;;;4990747;28;20296;-81
2023/05/18 11:38:45;;;;;;;2.87;1.17;;;14.40;99.90;;;;;;4999724;28;20292;-81
2023/05/18 11:41:29;;;;;;;1.30;1.00;;;14.30;99.90;;;;;;4998722;28;20699;-81
2023/05/18 11:44:10;;;;;;;1.93;1.10;;;14.90;99.90;;;;;;4999804;28;20259;-81
2023/05/18 11:46:39;;;;;;;1.97;1.03;;;14.90;99.90;;;;;;4998982;28;20239;-82
2023/05/18 11:49:08;;;;;;;4.97;0.87;;;14.80;99.90;;;;;;4998664;28;20238;-80
2023/05/18 11:51:56;;;;;;;6.37;2.10;;;14.80;99.90;;;;;;4997929;28;20195;-81
2023/05/18 11:54:25;;;;;;;0.70;0.70;;;14.30;99.90;;;;;;4988794;28;20250;-81
2023/05/18 11:56:54;;;;;;;1.43;0.90;;;14.50;99.90;;;;;;4966077;28;20240;-81
2023/05/18 11:59:31;;;;;;;3.30;1.60;;;14.90;99.90;;;;;;4987731;28;20215;-81
2023/05/18 12:02:00;;;;;;;1.80;0.90;;;15.10;99.90;;;;;;4998448;28;20707;-81
2023/05/18 12:04:26;;;;;;;2.80;1.13;;;15.00;99.90;;;;;;4981562;28;20568;-81
2023/05/18 12:06:53;;;;;;;2.00;1.00;;;14.80;99.90;;;;;;5026355;28;20220;-82
2023/05/18 12:09:19;;;;;;;0.93;0.90;;;14.20;99.90;;;;;;4960279;28;20294;-81
2023/05/18 12:11:45;;;;;;;2.10;1.40;;;14.10;99.90;;;;;;4962011;28;20314;-82
2023/05/18 12:14:12;;;;;;;3.80;1.53;;;14.10;99.90;;;;;;4972190;28;20490;-81
2023/05/18 12:16:42;;;;;;;1.77;1.33;;;14.20;99.90;;;;;;4978675;28;20575;-82
2023/05/18 12:19:08;;;;;;;0.93;0.77;;;14.10;99.90;;;;;;5010899;28;20285;-82
2023/05/18 12:21:36;;;;;;;1.80;1.70;;;14.30;99.90;;;;;;4978930;28;20637;-81
2023/05/18 12:24:03;;;;;;;1.73;1.10;;;14.20;99.90;;;;;;4995967;28;20280;-81
2023/05/18 12:26:30;;;;;;;1.63;1.20;;;14.00;99.90;;;;;;5015393;28;20244;-81
2023/05/18 12:28:59;;;;;;;2.40;1.23;;;13.70;99.90;;;;;;5014476;28;20220;-81
2023/05/18 12:31:25;;;;;;;1.30;0.87;;;14.10;99.90;;;;;;4991514;28;20207;-82
2023/05/18 12:33:53;;;;;;;0.80;0.80;;;14.30;99.90;;;;;;4997842;28;20223;-81
2023/05/18 12:36:19;;;;;;;3.60;1.93;;;14.30;99.90;;;;;;4998328;28;20219;-82
2023/05/18 12:38:50;;;;;;;1.30;1.20;;;14.30;99.90;;;;;;4980025;28;20294;-81
2023/05/18 12:41:26;;;;;;;3.50;0.97;;;14.60;99.90;;;;;;4981709;28;20215;-82
2023/05/18 12:43:53;;;;;;;0.93;0.70;;;14.30;99.90;;;;;;4992907;28;20225;-82
2023/05/18 12:46:23;;;;;;;4.20;0.97;;;14.20;99.90;;;;;;4995034;28;20351;-81
2023/05/18 12:49:00;;;;;;;1.80;1.40;;;14.50;99.90;;;;;;4982319;28;20199;-81
2023/05/18 12:51:32;;;;;;;4.53;1.33;;;14.60;99.90;;;;;;4984398;28;20194;-81
2023/05/18 12:53:58;;;;;;;4.40;1.57;;;14.50;99.90;;;;;;5002540;28;20218;-81
2023/05/18 12:56:24;;;;;;;1.20;1.10;;;14.30;99.90;;;;;;5000657;28;20669;-81